sensor_id;sensor_type;location;lat;lon;timestamp;temperature;humidity
14798;DHT22;7490;63.708;20.368;2022-07-29T00:02:10;15.90;81.90
14798;DHT22;7490;63.708;20.368;2022-07-29T00:04:36;15.80;81.90
14798;DHT22;7490;63.708;20.368;2022-07-29T00:07:03;15.80;82.00
14798;DHT22;7490;63.708;20.368;2022-07-29T00:09:30;15.70;82.10
14798;DHT22;7490;63.708;20.368;2022-07-29T00:11:58;15.60;82.00
14798;DHT22;7490;63.708;20.368;2022-07-29T00:14:25;15.60;82.10
14798;DHT22;7490;63.708;20.368;2022-07-29T00:16:51;15.50;82.20
14798;DHT22;7490;63.708;20.368;2022-07-29T00:19:16;15.50;82.40
14798;DHT22;7490;63.708;20.368;2022-07-29T00:21:42;15.40;82.90
14798;DHT22;7490;63.708;20.368;2022-07-29T00:24:08;15.30;82.70
14798;DHT22;7490;63.708;20.368;2022-07-29T00:26:33;15.30;82.70
14798;DHT22;7490;63.708;20.368;2022-07-29T00:29:00;15.20;82.80
14798;DHT22;7490;63.708;20.368;2022-07-29T00:31:26;15.20;83.00
14798;DHT22;7490;63.708;20.368;2022-07-29T00:33:52;15.10;83.10
14798;DHT22;7490;63.708;20.368;2022-07-29T00:36:18;15.10;83.30
14798;DHT22;7490;63.708;20.368;2022-07-29T00:38:44;15.00;83.70
14798;DHT22;7490;63.708;20.368;2022-07-29T00:41:11;15.00;84.00
14798;DHT22;7490;63.708;20.368;2022-07-29T00:43:37;14.90;84.20
14798;DHT22;7490;63.708;20.368;2022-07-29T00:46:03;14.90;84.40
14798;DHT22;7490;63.708;20.368;2022-07-29T00:48:29;14.90;84.60
14798;DHT22;7490;63.708;20.368;2022-07-29T00:50:56;14.90;84.90
14798;DHT22;7490;63.708;20.368;2022-07-29T00:53:23;14.90;85.10
14798;DHT22;7490;63.708;20.368;2022-07-29T00:55:50;14.80;85.00
14798;DHT22;7490;63.708;20.368;2022-07-29T00:58:16;14.80;85.00
14798;DHT22;7490;63.708;20.368;2022-07-29T01:00:42;14.80;85.10
14798;DHT22;7490;63.708;20.368;2022-07-29T01:03:08;14.80;85.20
14798;DHT22;7490;63.708;20.368;2022-07-29T01:05:34;14.80;85.30
14798;DHT22;7490;63.708;20.368;2022-07-29T01:08:02;14.80;85.50
14798;DHT22;7490;63.708;20.368;2022-07-29T01:10:28;14.80;86.30
14798;DHT22;7490;63.708;20.368;2022-07-29T01:12:57;14.70;85.50
14798;DHT22;7490;63.708;20.368;2022-07-29T01:15:23;14.80;85.70
14798;DHT22;7490;63.708;20.368;2022-07-29T01:18:11;14.70;85.60
14798;DHT22;7490;63.708;20.368;2022-07-29T01:28:38;14.50;85.50
14798;DHT22;7490;63.708;20.368;2022-07-29T01:31:05;14.50;85.60
14798;DHT22;7490;63.708;20.368;2022-07-29T01:33:36;14.50;86.50
14798;DHT22;7490;63.708;20.368;2022-07-29T01:36:47;14.50;86.10
14798;DHT22;7490;63.708;20.368;2022-07-29T01:39:26;14.40;86.30
14798;DHT22;7490;63.708;20.368;2022-07-29T01:42:12;14.40;86.30
14798;DHT22;7490;63.708;20.368;2022-07-29T01:44:54;14.40;86.50
14798;DHT22;7490;63.708;20.368;2022-07-29T01:47:25;14.40;86.50
14798;DHT22;7490;63.708;20.368;2022-07-29T01:49:54;14.50;86.60
14798;DHT22;7490;63.708;20.368;2022-07-29T01:52:36;14.50;86.70
14798;DHT22;7490;63.708;20.368;2022-07-29T01:55:11;14.50;86.80
14798;DHT22;7490;63.708;20.368;2022-07-29T01:57:42;14.60;86.90
14798;DHT22;7490;63.708;20.368;2022-07-29T02:00:09;14.60;86.90
14798;DHT22;7490;63.708;20.368;2022-07-29T02:02:38;14.60;87.00
14798;DHT22;7490;63.708;20.368;2022-07-29T02:05:07;14.60;86.90
14798;DHT22;7490;63.708;20.368;2022-07-29T02:07:33;14.60;86.90
14798;DHT22;7490;63.708;20.368;2022-07-29T02:10:02;14.60;86.80
14798;DHT22;7490;63.708;20.368;2022-07-29T02:12:29;14.60;86.80
14798;DHT22;7490;63.708;20.368;2022-07-29T02:14:59;14.50;86.80
14798;DHT22;7490;63.708;20.368;2022-07-29T02:17:29;14.50;86.80
14798;DHT22;7490;63.708;20.368;2022-07-29T02:19:59;14.50;86.90
14798;DHT22;7490;63.708;20.368;2022-07-29T02:22:28;14.40;86.90
14798;DHT22;7490;63.708;20.368;2022-07-29T02:24:54;14.40;87.00
14798;DHT22;7490;63.708;20.368;2022-07-29T02:27:22;14.40;87.10
14798;DHT22;7490;63.708;20.368;2022-07-29T02:29:50;14.30;87.20
14798;DHT22;7490;63.708;20.368;2022-07-29T02:32:17;14.30;87.30
14798;DHT22;7490;63.708;20.368;2022-07-29T02:34:43;14.30;87.40
14798;DHT22;7490;63.708;20.368;2022-07-29T02:37:10;14.30;87.60
14798;DHT22;7490;63.708;20.368;2022-07-29T02:39:37;14.30;87.70
14798;DHT22;7490;63.708;20.368;2022-07-29T02:42:08;14.20;87.80
14798;DHT22;7490;63.708;20.368;2022-07-29T02:44:35;14.20;87.90
14798;DHT22;7490;63.708;20.368;2022-07-29T02:47:24;14.20;88.00
14798;DHT22;7490;63.708;20.368;2022-07-29T02:50:02;14.20;88.10
14798;DHT22;7490;63.708;20.368;2022-07-29T02:55:21;14.30;88.20
14798;DHT22;7490;63.708;20.368;2022-07-29T02:57:59;14.30;88.40
14798;DHT22;7490;63.708;20.368;2022-07-29T03:00:31;14.20;88.30
14798;DHT22;7490;63.708;20.368;2022-07-29T03:02:59;14.30;88.40
14798;DHT22;7490;63.708;20.368;2022-07-29T03:05:26;14.30;88.50
14798;DHT22;7490;63.708;20.368;2022-07-29T03:08:00;14.30;88.50
14798;DHT22;7490;63.708;20.368;2022-07-29T03:10:27;14.40;89.10
14798;DHT22;7490;63.708;20.368;2022-07-29T03:12:54;14.50;90.10
14798;DHT22;7490;63.708;20.368;2022-07-29T03:15:21;15.00;90.80
14798;DHT22;7490;63.708;20.368;2022-07-29T03:17:47;15.80;91.10
14798;DHT22;7490;63.708;20.368;2022-07-29T03:20:14;16.80;90.50
14798;DHT22;7490;63.708;20.368;2022-07-29T03:22:42;17.80;89.20
14798;DHT22;7490;63.708;20.368;2022-07-29T03:25:18;18.90;86.40
14798;DHT22;7490;63.708;20.368;2022-07-29T03:27:45;19.80;83.00
14798;DHT22;7490;63.708;20.368;2022-07-29T03:30:12;20.70;80.20
14798;DHT22;7490;63.708;20.368;2022-07-29T03:32:40;21.60;77.30
14798;DHT22;7490;63.708;20.368;2022-07-29T03:35:07;22.40;74.20
14798;DHT22;7490;63.708;20.368;2022-07-29T03:37:33;23.10;71.20
14798;DHT22;7490;63.708;20.368;2022-07-29T03:40:00;23.80;68.60
14798;DHT22;7490;63.708;20.368;2022-07-29T03:42:30;24.40;65.90
14798;DHT22;7490;63.708;20.368;2022-07-29T03:44:57;25.00;63.40
14798;DHT22;7490;63.708;20.368;2022-07-29T03:47:27;25.50;61.00
14798;DHT22;7490;63.708;20.368;2022-07-29T03:49:59;26.00;58.50
14798;DHT22;7490;63.708;20.368;2022-07-29T03:52:26;26.30;57.40
14798;DHT22;7490;63.708;20.368;2022-07-29T03:54:52;26.80;56.40
14798;DHT22;7490;63.708;20.368;2022-07-29T03:57:20;27.20;54.80
14798;DHT22;7490;63.708;20.368;2022-07-29T03:59:49;27.50;53.60
14798;DHT22;7490;63.708;20.368;2022-07-29T04:02:16;27.90;52.80
14798;DHT22;7490;63.708;20.368;2022-07-29T04:04:41;28.30;51.50
14798;DHT22;7490;63.708;20.368;2022-07-29T04:07:12;28.60;50.60
14798;DHT22;7490;63.708;20.368;2022-07-29T04:09:38;28.90;49.60
14798;DHT22;7490;63.708;20.368;2022-07-29T04:12:04;29.30;49.20
14798;DHT22;7490;63.708;20.368;2022-07-29T04:14:33;29.60;48.10
14798;DHT22;7490;63.708;20.368;2022-07-29T04:17:03;29.90;47.40
14798;DHT22;7490;63.708;20.368;2022-07-29T04:19:30;30.30;46.80
14798;DHT22;7490;63.708;20.368;2022-07-29T04:21:59;30.60;46.10
14798;DHT22;7490;63.708;20.368;2022-07-29T04:24:25;31.00;45.30
14798;DHT22;7490;63.708;20.368;2022-07-29T04:26:52;31.30;44.20
14798;DHT22;7490;63.708;20.368;2022-07-29T04:29:18;31.50;43.50
14798;DHT22;7490;63.708;20.368;2022-07-29T04:31:44;31.80;43.10
14798;DHT22;7490;63.708;20.368;2022-07-29T04:34:10;32.10;42.60
14798;DHT22;7490;63.708;20.368;2022-07-29T04:36:36;32.40;41.90
14798;DHT22;7490;63.708;20.368;2022-07-29T04:39:02;32.70;41.60
14798;DHT22;7490;63.708;20.368;2022-07-29T04:41:28;32.90;40.90
14798;DHT22;7490;63.708;20.368;2022-07-29T04:43:54;33.20;40.30
14798;DHT22;7490;63.708;20.368;2022-07-29T04:46:20;33.50;39.90
14798;DHT22;7490;63.708;20.368;2022-07-29T04:48:46;33.80;39.50
14798;DHT22;7490;63.708;20.368;2022-07-29T04:51:13;34.00;38.90
14798;DHT22;7490;63.708;20.368;2022-07-29T04:53:39;34.30;38.20
14798;DHT22;7490;63.708;20.368;2022-07-29T04:56:04;34.60;37.70
14798;DHT22;7490;63.708;20.368;2022-07-29T04:58:30;34.70;36.90
14798;DHT22;7490;63.708;20.368;2022-07-29T05:00:56;34.70;36.40
14798;DHT22;7490;63.708;20.368;2022-07-29T05:03:22;34.50;36.40
14798;DHT22;7490;63.708;20.368;2022-07-29T05:05:47;34.40;36.10
14798;DHT22;7490;63.708;20.368;2022-07-29T05:08:13;34.40;35.90
14798;DHT22;7490;63.708;20.368;2022-07-29T05:10:39;34.50;35.90
14798;DHT22;7490;63.708;20.368;2022-07-29T05:13:05;34.60;35.70
14798;DHT22;7490;63.708;20.368;2022-07-29T05:15:33;34.80;35.70
14798;DHT22;7490;63.708;20.368;2022-07-29T05:17:59;35.10;35.20
14798;DHT22;7490;63.708;20.368;2022-07-29T05:20:24;35.30;34.70
14798;DHT22;7490;63.708;20.368;2022-07-29T05:22:57;35.40;34.10
14798;DHT22;7490;63.708;20.368;2022-07-29T05:25:24;35.30;33.80
14798;DHT22;7490;63.708;20.368;2022-07-29T05:27:50;35.40;34.10
14798;DHT22;7490;63.708;20.368;2022-07-29T05:30:16;35.60;33.80
14798;DHT22;7490;63.708;20.368;2022-07-29T05:32:41;35.80;33.60
14798;DHT22;7490;63.708;20.368;2022-07-29T05:35:08;36.00;33.20
14798;DHT22;7490;63.708;20.368;2022-07-29T05:37:34;36.10;32.80
14798;DHT22;7490;63.708;20.368;2022-07-29T05:39:59;36.00;32.80
14798;DHT22;7490;63.708;20.368;2022-07-29T05:42:25;36.10;32.90
14798;DHT22;7490;63.708;20.368;2022-07-29T05:44:52;36.30;32.60
14798;DHT22;7490;63.708;20.368;2022-07-29T05:47:18;36.30;32.80
14798;DHT22;7490;63.708;20.368;2022-07-29T05:49:44;36.70;32.70
14798;DHT22;7490;63.708;20.368;2022-07-29T05:52:09;37.00;32.00
14798;DHT22;7490;63.708;20.368;2022-07-29T05:54:35;37.10;31.50
14798;DHT22;7490;63.708;20.368;2022-07-29T05:57:02;37.10;31.40
14798;DHT22;7490;63.708;20.368;2022-07-29T05:59:27;37.30;30.80
14798;DHT22;7490;63.708;20.368;2022-07-29T06:01:53;37.20;31.00
14798;DHT22;7490;63.708;20.368;2022-07-29T06:04:19;37.40;31.10
14798;DHT22;7490;63.708;20.368;2022-07-29T06:06:44;37.70;31.00
14798;DHT22;7490;63.708;20.368;2022-07-29T06:09:10;38.00;30.60
14798;DHT22;7490;63.708;20.368;2022-07-29T06:11:36;38.20;30.50
14798;DHT22;7490;63.708;20.368;2022-07-29T06:14:02;38.50;30.20
14798;DHT22;7490;63.708;20.368;2022-07-29T06:16:29;38.80;29.90
14798;DHT22;7490;63.708;20.368;2022-07-29T06:18:54;39.00;29.50
14798;DHT22;7490;63.708;20.368;2022-07-29T06:21:20;39.00;29.30
14798;DHT22;7490;63.708;20.368;2022-07-29T06:23:46;39.10;29.40
14798;DHT22;7490;63.708;20.368;2022-07-29T06:26:11;39.30;29.10
14798;DHT22;7490;63.708;20.368;2022-07-29T06:28:37;39.50;28.90
14798;DHT22;7490;63.708;20.368;2022-07-29T06:31:03;39.80;28.50
14798;DHT22;7490;63.708;20.368;2022-07-29T06:33:30;39.70;28.40
14798;DHT22;7490;63.708;20.368;2022-07-29T06:35:55;39.90;28.40
14798;DHT22;7490;63.708;20.368;2022-07-29T06:38:21;40.10;27.90
14798;DHT22;7490;63.708;20.368;2022-07-29T06:40:47;40.20;27.10
14798;DHT22;7490;63.708;20.368;2022-07-29T06:43:36;40.00;27.20
14798;DHT22;7490;63.708;20.368;2022-07-29T06:46:11;39.50;26.90
14798;DHT22;7490;63.708;20.368;2022-07-29T06:48:39;39.40;27.70
14798;DHT22;7490;63.708;20.368;2022-07-29T06:51:05;39.50;27.40
14798;DHT22;7490;63.708;20.368;2022-07-29T06:53:32;39.40;27.10
14798;DHT22;7490;63.708;20.368;2022-07-29T06:55:59;39.00;27.20
14798;DHT22;7490;63.708;20.368;2022-07-29T06:58:27;38.90;27.40
14798;DHT22;7490;63.708;20.368;2022-07-29T07:00:53;38.90;27.60
14798;DHT22;7490;63.708;20.368;2022-07-29T07:03:19;39.10;27.60
14798;DHT22;7490;63.708;20.368;2022-07-29T07:05:45;39.20;27.20
14798;DHT22;7490;63.708;20.368;2022-07-29T07:08:12;39.00;26.90
14798;DHT22;7490;63.708;20.368;2022-07-29T07:10:38;39.00;27.40
14798;DHT22;7490;63.708;20.368;2022-07-29T07:13:04;39.10;27.30
14798;DHT22;7490;63.708;20.368;2022-07-29T07:15:30;39.40;27.20
14798;DHT22;7490;63.708;20.368;2022-07-29T07:17:56;39.60;26.90
14798;DHT22;7490;63.708;20.368;2022-07-29T07:20:23;39.70;26.80
14798;DHT22;7490;63.708;20.368;2022-07-29T07:22:48;39.70;26.60
14798;DHT22;7490;63.708;20.368;2022-07-29T07:25:14;39.30;26.50
14798;DHT22;7490;63.708;20.368;2022-07-29T07:27:40;39.20;27.00
14798;DHT22;7490;63.708;20.368;2022-07-29T07:30:06;39.50;27.00
14798;DHT22;7490;63.708;20.368;2022-07-29T07:32:33;40.00;26.70
14798;DHT22;7490;63.708;20.368;2022-07-29T07:34:59;40.20;26.40
14798;DHT22;7490;63.708;20.368;2022-07-29T07:37:25;40.40;26.40
14798;DHT22;7490;63.708;20.368;2022-07-29T07:39:51;40.70;26.30
14798;DHT22;7490;63.708;20.368;2022-07-29T07:42:17;41.20;26.00
14798;DHT22;7490;63.708;20.368;2022-07-29T07:44:43;41.30;25.50
14798;DHT22;7490;63.708;20.368;2022-07-29T07:47:11;40.80;25.50
14798;DHT22;7490;63.708;20.368;2022-07-29T07:49:37;40.40;25.90
14798;DHT22;7490;63.708;20.368;2022-07-29T07:52:03;40.40;25.90
14798;DHT22;7490;63.708;20.368;2022-07-29T07:54:29;40.20;25.80
14798;DHT22;7490;63.708;20.368;2022-07-29T07:56:56;40.20;26.20
14798;DHT22;7490;63.708;20.368;2022-07-29T07:59:22;40.50;26.10
14798;DHT22;7490;63.708;20.368;2022-07-29T08:01:47;41.10;26.20
14798;DHT22;7490;63.708;20.368;2022-07-29T08:04:13;41.30;25.60
14798;DHT22;7490;63.708;20.368;2022-07-29T08:06:39;41.30;25.50
14798;DHT22;7490;63.708;20.368;2022-07-29T08:09:05;41.00;26.00
14798;DHT22;7490;63.708;20.368;2022-07-29T08:11:31;40.60;25.90
14798;DHT22;7490;63.708;20.368;2022-07-29T08:13:56;40.40;26.20
14798;DHT22;7490;63.708;20.368;2022-07-29T08:16:22;40.80;26.40
14798;DHT22;7490;63.708;20.368;2022-07-29T08:18:50;41.50;26.10
14798;DHT22;7490;63.708;20.368;2022-07-29T08:21:16;42.00;25.50
14798;DHT22;7490;63.708;20.368;2022-07-29T08:23:43;42.10;24.90
14798;DHT22;7490;63.708;20.368;2022-07-29T08:26:16;41.70;25.00
14798;DHT22;7490;63.708;20.368;2022-07-29T08:28:43;41.60;25.10
14798;DHT22;7490;63.708;20.368;2022-07-29T08:31:11;41.50;25.40
14798;DHT22;7490;63.708;20.368;2022-07-29T08:33:37;41.30;25.20
14798;DHT22;7490;63.708;20.368;2022-07-29T08:36:03;40.30;25.10
14798;DHT22;7490;63.708;20.368;2022-07-29T08:38:29;39.00;25.90
14798;DHT22;7490;63.708;20.368;2022-07-29T08:40:55;37.90;26.50
14798;DHT22;7490;63.708;20.368;2022-07-29T08:43:20;36.90;27.00
14798;DHT22;7490;63.708;20.368;2022-07-29T08:45:50;35.80;27.80
14798;DHT22;7490;63.708;20.368;2022-07-29T08:48:18;34.60;28.70
14798;DHT22;7490;63.708;20.368;2022-07-29T08:50:45;33.90;29.60
14798;DHT22;7490;63.708;20.368;2022-07-29T08:53:13;33.60;30.10
14798;DHT22;7490;63.708;20.368;2022-07-29T08:55:41;34.10;30.30
14798;DHT22;7490;63.708;20.368;2022-07-29T08:58:08;35.20;29.80
14798;DHT22;7490;63.708;20.368;2022-07-29T09:00:40;36.00;28.90
14798;DHT22;7490;63.708;20.368;2022-07-29T09:03:08;35.80;28.40
14798;DHT22;7490;63.708;20.368;2022-07-29T09:05:35;35.90;28.80
14798;DHT22;7490;63.708;20.368;2022-07-29T09:08:01;36.60;28.10
14798;DHT22;7490;63.708;20.368;2022-07-29T09:10:27;36.10;27.40
14798;DHT22;7490;63.708;20.368;2022-07-29T09:12:54;35.00;27.70
14798;DHT22;7490;63.708;20.368;2022-07-29T09:15:20;33.60;28.50
14798;DHT22;7490;63.708;20.368;2022-07-29T09:17:48;32.50;30.00
14798;DHT22;7490;63.708;20.368;2022-07-29T09:20:17;32.00;31.70
14798;DHT22;7490;63.708;20.368;2022-07-29T09:22:43;32.00;32.00
14798;DHT22;7490;63.708;20.368;2022-07-29T09:25:12;31.50;32.00
14798;DHT22;7490;63.708;20.368;2022-07-29T09:27:38;30.60;33.60
14798;DHT22;7490;63.708;20.368;2022-07-29T09:30:09;30.10;34.60
14798;DHT22;7490;63.708;20.368;2022-07-29T09:32:59;29.60;35.40
14798;DHT22;7490;63.708;20.368;2022-07-29T09:35:29;29.30;36.90
14798;DHT22;7490;63.708;20.368;2022-07-29T09:37:55;29.70;36.60
14798;DHT22;7490;63.708;20.368;2022-07-29T09:40:26;30.00;36.10
14798;DHT22;7490;63.708;20.368;2022-07-29T09:42:54;30.00;35.70
14798;DHT22;7490;63.708;20.368;2022-07-29T09:45:33;29.20;35.70
14798;DHT22;7490;63.708;20.368;2022-07-29T09:48:12;28.20;37.00
14798;DHT22;7490;63.708;20.368;2022-07-29T09:50:39;27.40;38.30
14798;DHT22;7490;63.708;20.368;2022-07-29T09:53:05;26.70;39.50
14798;DHT22;7490;63.708;20.368;2022-07-29T09:55:31;26.00;40.40
14798;DHT22;7490;63.708;20.368;2022-07-29T09:58:18;25.80;42.00
14798;DHT22;7490;63.708;20.368;2022-07-29T10:00:45;26.10;41.80
14798;DHT22;7490;63.708;20.368;2022-07-29T10:03:12;26.20;41.30
14798;DHT22;7490;63.708;20.368;2022-07-29T10:05:38;26.00;41.60
14798;DHT22;7490;63.708;20.368;2022-07-29T10:08:05;26.20;42.10
14798;DHT22;7490;63.708;20.368;2022-07-29T10:10:35;26.60;41.50
14798;DHT22;7490;63.708;20.368;2022-07-29T10:13:04;26.60;41.00
14798;DHT22;7490;63.708;20.368;2022-07-29T10:15:32;26.30;41.30
14798;DHT22;7490;63.708;20.368;2022-07-29T10:17:59;25.70;42.20
14798;DHT22;7490;63.708;20.368;2022-07-29T10:20:27;25.10;43.00
14798;DHT22;7490;63.708;20.368;2022-07-29T10:22:53;24.80;44.60
14798;DHT22;7490;63.708;20.368;2022-07-29T10:25:20;25.20;45.00
14798;DHT22;7490;63.708;20.368;2022-07-29T10:27:46;26.30;44.50
14798;DHT22;7490;63.708;20.368;2022-07-29T10:30:14;27.30;42.40
14798;DHT22;7490;63.708;20.368;2022-07-29T10:38:27;29.00;39.60
14798;DHT22;7490;63.708;20.368;2022-07-29T10:43:49;28.30;40.10
14798;DHT22;7490;63.708;20.368;2022-07-29T10:46:15;28.10;40.00
14798;DHT22;7490;63.708;20.368;2022-07-29T10:52:07;26.00;42.40
14798;DHT22;7490;63.708;20.368;2022-07-29T10:54:44;24.90;44.30
14798;DHT22;7490;63.708;20.368;2022-07-29T10:57:21;24.10;45.50
14798;DHT22;7490;63.708;20.368;2022-07-29T11:00:30;23.50;46.80
14798;DHT22;7490;63.708;20.368;2022-07-29T11:05:03;22.90;48.70
14798;DHT22;7490;63.708;20.368;2022-07-29T11:07:29;22.90;49.10
14798;DHT22;7490;63.708;20.368;2022-07-29T11:20:42;23.40;51.10
14798;DHT22;7490;63.708;20.368;2022-07-29T11:28:48;22.10;54.00
14798;DHT22;7490;63.708;20.368;2022-07-29T11:32:07;21.90;54.40
14798;DHT22;7490;63.708;20.368;2022-07-29T11:39:35;21.60;55.80
14798;DHT22;7490;63.708;20.368;2022-07-29T11:45:01;21.50;56.20
14798;DHT22;7490;63.708;20.368;2022-07-29T11:47:28;21.50;56.50
14798;DHT22;7490;63.708;20.368;2022-07-29T11:49:56;21.60;56.10
14798;DHT22;7490;63.708;20.368;2022-07-29T11:52:23;21.60;56.30
14798;DHT22;7490;63.708;20.368;2022-07-29T11:54:50;21.70;56.60
14798;DHT22;7490;63.708;20.368;2022-07-29T11:57:19;21.80;57.00
14798;DHT22;7490;63.708;20.368;2022-07-29T11:59:46;22.00;57.20
14798;DHT22;7490;63.708;20.368;2022-07-29T12:02:13;22.10;57.00
14798;DHT22;7490;63.708;20.368;2022-07-29T12:04:52;22.30;56.90
14798;DHT22;7490;63.708;20.368;2022-07-29T12:07:25;22.30;56.40
14798;DHT22;7490;63.708;20.368;2022-07-29T12:09:52;22.20;56.10
14798;DHT22;7490;63.708;20.368;2022-07-29T12:12:19;22.10;55.80
14798;DHT22;7490;63.708;20.368;2022-07-29T12:14:44;22.00;55.70
14798;DHT22;7490;63.708;20.368;2022-07-29T12:17:26;21.90;55.80
14798;DHT22;7490;63.708;20.368;2022-07-29T12:19:59;22.00;56.20
14798;DHT22;7490;63.708;20.368;2022-07-29T12:22:26;22.10;55.90
14798;DHT22;7490;63.708;20.368;2022-07-29T12:24:53;22.10;55.80
14798;DHT22;7490;63.708;20.368;2022-07-29T12:27:19;22.10;55.70
14798;DHT22;7490;63.708;20.368;2022-07-29T12:29:54;22.00;55.60
14798;DHT22;7490;63.708;20.368;2022-07-29T12:32:20;21.90;56.10
14798;DHT22;7490;63.708;20.368;2022-07-29T12:34:46;22.00;56.10
14798;DHT22;7490;63.708;20.368;2022-07-29T12:37:12;21.80;55.90
14798;DHT22;7490;63.708;20.368;2022-07-29T12:39:38;21.70;56.20
14798;DHT22;7490;63.708;20.368;2022-07-29T12:42:11;21.60;56.90
14798;DHT22;7490;63.708;20.368;2022-07-29T12:44:47;21.60;57.60
14798;DHT22;7490;63.708;20.368;2022-07-29T12:47:14;21.80;57.60
14798;DHT22;7490;63.708;20.368;2022-07-29T12:49:40;21.80;57.30
14798;DHT22;7490;63.708;20.368;2022-07-29T12:54:54;21.80;58.00
14798;DHT22;7490;63.708;20.368;2022-07-29T12:57:20;22.00;57.70
14798;DHT22;7490;63.708;20.368;2022-07-29T13:00:08;22.10;57.30
14798;DHT22;7490;63.708;20.368;2022-07-29T13:02:37;22.20;57.10
14798;DHT22;7490;63.708;20.368;2022-07-29T13:05:05;22.10;56.70
14798;DHT22;7490;63.708;20.368;2022-07-29T13:07:32;22.00;56.60
14798;DHT22;7490;63.708;20.368;2022-07-29T13:10:14;21.90;56.80
14798;DHT22;7490;63.708;20.368;2022-07-29T13:13:07;21.70;57.10
14798;DHT22;7490;63.708;20.368;2022-07-29T13:15:38;21.50;57.40
14798;DHT22;7490;63.708;20.368;2022-07-29T13:18:05;21.40;57.40
14798;DHT22;7490;63.708;20.368;2022-07-29T13:20:50;21.30;57.90
14798;DHT22;7490;63.708;20.368;2022-07-29T13:23:16;21.10;58.10
14798;DHT22;7490;63.708;20.368;2022-07-29T13:25:42;21.00;58.30
14798;DHT22;7490;63.708;20.368;2022-07-29T13:28:07;21.00;58.80
14798;DHT22;7490;63.708;20.368;2022-07-29T13:30:33;21.00;59.00
14798;DHT22;7490;63.708;20.368;2022-07-29T13:32:59;21.00;59.20
14798;DHT22;7490;63.708;20.368;2022-07-29T13:35:24;21.10;58.90
14798;DHT22;7490;63.708;20.368;2022-07-29T13:37:50;21.10;58.60
14798;DHT22;7490;63.708;20.368;2022-07-29T13:40:16;21.10;58.40
14798;DHT22;7490;63.708;20.368;2022-07-29T13:42:42;21.10;58.40
14798;DHT22;7490;63.708;20.368;2022-07-29T13:45:09;21.10;58.60
14798;DHT22;7490;63.708;20.368;2022-07-29T13:47:36;21.10;58.50
14798;DHT22;7490;63.708;20.368;2022-07-29T13:50:04;21.10;58.60
14798;DHT22;7490;63.708;20.368;2022-07-29T13:52:30;21.20;58.60
14798;DHT22;7490;63.708;20.368;2022-07-29T13:54:56;21.20;59.20
14798;DHT22;7490;63.708;20.368;2022-07-29T13:57:21;21.20;58.40
14798;DHT22;7490;63.708;20.368;2022-07-29T13:59:47;21.30;58.40
14798;DHT22;7490;63.708;20.368;2022-07-29T14:02:13;21.30;58.20
14798;DHT22;7490;63.708;20.368;2022-07-29T14:04:39;21.30;58.20
14798;DHT22;7490;63.708;20.368;2022-07-29T14:07:05;21.30;58.30
14798;DHT22;7490;63.708;20.368;2022-07-29T14:09:31;21.30;58.40
14798;DHT22;7490;63.708;20.368;2022-07-29T14:11:57;21.30;58.40
14798;DHT22;7490;63.708;20.368;2022-07-29T14:14:23;21.30;58.10
14798;DHT22;7490;63.708;20.368;2022-07-29T14:16:48;21.30;57.90
14798;DHT22;7490;63.708;20.368;2022-07-29T14:19:14;21.10;57.80
14798;DHT22;7490;63.708;20.368;2022-07-29T14:21:39;21.00;58.00
14798;DHT22;7490;63.708;20.368;2022-07-29T14:24:06;21.00;58.20
14798;DHT22;7490;63.708;20.368;2022-07-29T14:26:32;20.90;58.50
14798;DHT22;7490;63.708;20.368;2022-07-29T14:28:57;20.90;59.10
14798;DHT22;7490;63.708;20.368;2022-07-29T14:31:23;20.80;59.70
14798;DHT22;7490;63.708;20.368;2022-07-29T14:33:49;20.80;59.70
14798;DHT22;7490;63.708;20.368;2022-07-29T14:36:14;20.80;59.40
14798;DHT22;7490;63.708;20.368;2022-07-29T14:38:40;20.70;59.60
14798;DHT22;7490;63.708;20.368;2022-07-29T14:41:07;20.70;59.80
14798;DHT22;7490;63.708;20.368;2022-07-29T14:43:34;20.80;60.00
14798;DHT22;7490;63.708;20.368;2022-07-29T14:46:00;20.90;60.00
14798;DHT22;7490;63.708;20.368;2022-07-29T14:48:26;21.00;59.90
14798;DHT22;7490;63.708;20.368;2022-07-29T14:50:52;21.10;59.80
14798;DHT22;7490;63.708;20.368;2022-07-29T14:53:18;21.20;59.40
14798;DHT22;7490;63.708;20.368;2022-07-29T14:55:44;21.30;59.30
14798;DHT22;7490;63.708;20.368;2022-07-29T14:58:09;21.30;58.70
14798;DHT22;7490;63.708;20.368;2022-07-29T15:00:35;21.30;58.70
14798;DHT22;7490;63.708;20.368;2022-07-29T15:03:02;21.20;58.80
14798;DHT22;7490;63.708;20.368;2022-07-29T15:05:29;21.20;58.80
14798;DHT22;7490;63.708;20.368;2022-07-29T15:07:55;21.20;59.10
14798;DHT22;7490;63.708;20.368;2022-07-29T15:10:20;21.20;59.00
14798;DHT22;7490;63.708;20.368;2022-07-29T15:12:46;21.20;58.60
14798;DHT22;7490;63.708;20.368;2022-07-29T15:15:12;21.20;58.10
14798;DHT22;7490;63.708;20.368;2022-07-29T15:17:37;21.30;57.90
14798;DHT22;7490;63.708;20.368;2022-07-29T15:20:04;21.40;57.50
14798;DHT22;7490;63.708;20.368;2022-07-29T15:22:30;21.50;57.10
14798;DHT22;7490;63.708;20.368;2022-07-29T15:24:55;21.50;56.80
14798;DHT22;7490;63.708;20.368;2022-07-29T15:27:21;21.50;56.40
14798;DHT22;7490;63.708;20.368;2022-07-29T15:29:47;21.40;55.90
14798;DHT22;7490;63.708;20.368;2022-07-29T15:32:13;21.20;55.80
14798;DHT22;7490;63.708;20.368;2022-07-29T15:34:39;21.00;56.10
14798;DHT22;7490;63.708;20.368;2022-07-29T15:37:05;20.90;56.50
14798;DHT22;7490;63.708;20.368;2022-07-29T15:39:31;20.90;56.80
14798;DHT22;7490;63.708;20.368;2022-07-29T15:41:57;21.00;56.80
14798;DHT22;7490;63.708;20.368;2022-07-29T15:44:24;21.20;56.40
14798;DHT22;7490;63.708;20.368;2022-07-29T15:46:50;21.40;56.10
14798;DHT22;7490;63.708;20.368;2022-07-29T15:49:29;21.50;55.70
14798;DHT22;7490;63.708;20.368;2022-07-29T15:51:59;21.40;55.30
14798;DHT22;7490;63.708;20.368;2022-07-29T15:54:25;21.40;55.30
14798;DHT22;7490;63.708;20.368;2022-07-29T15:56:50;21.30;55.20
14798;DHT22;7490;63.708;20.368;2022-07-29T15:59:16;21.30;55.40
14798;DHT22;7490;63.708;20.368;2022-07-29T16:01:42;21.30;55.30
14798;DHT22;7490;63.708;20.368;2022-07-29T16:04:08;21.30;55.20
14798;DHT22;7490;63.708;20.368;2022-07-29T16:06:33;21.10;55.20
14798;DHT22;7490;63.708;20.368;2022-07-29T16:08:59;21.00;56.10
14798;DHT22;7490;63.708;20.368;2022-07-29T16:11:25;20.80;55.80
14798;DHT22;7490;63.708;20.368;2022-07-29T16:13:50;20.80;56.30
14798;DHT22;7490;63.708;20.368;2022-07-29T16:16:16;20.80;56.50
14798;DHT22;7490;63.708;20.368;2022-07-29T16:18:43;20.90;56.30
14798;DHT22;7490;63.708;20.368;2022-07-29T16:21:10;20.90;56.20
14798;DHT22;7490;63.708;20.368;2022-07-29T16:23:36;20.90;56.10
14798;DHT22;7490;63.708;20.368;2022-07-29T16:26:01;20.90;56.10
14798;DHT22;7490;63.708;20.368;2022-07-29T16:28:30;21.00;56.00